Pelican State — WDE4433 — position and weather

sailwx.info

Track history (hours):
 
Tides and Currents Weather Stations Pressure Air Temp Water Temp Dewpoint Dewpoint Depression Visibility Wind Speed Wind Dir Waves Ship Positions

Pelican State

Owner: Crowley Petroleum Serives, Jacksonville, FL. More information available from US FCC via Universal Licensing System and Coast Guard Vessel Documentation Center.

Last reported at 2018-Apr-19 13:52 UTC. Time now 2018-Apr-19 23:21 UTC.
Position N 48°08' W 123°23'.

Length 183 m; draft 8.7 m.

Type: Tanker. MMSI: 367353110.

Date/timePositionNaut miles runAvg speedWind from/ knotsBaromVisibWave heightAir tempDewpointWater temp
2018-Apr-19 13:52N 48°08' W 123°23'2 6.1
2018-Apr-19 13:29N 48°10' W 123°24'4 8.6
2018-Apr-19 13:00N 48°13' W 123°30'5 9.5
2018-Apr-19 12:30N 48°14' W 123°37'611.8
2018-Apr-19 12:00N 48°14' W 123°46'612.7
2018-Apr-19 11:30N 48°14' W 123°55'713.6
2018-Apr-19 11:00N 48°17' W 124°05'713.4
2018-Apr-19 10:30N 48°19' W 124°14'713.5
2018-Apr-19 10:00N 48°22' W 124°23'713.5
2018-Apr-19 09:31N 48°25' W 124°32'713.1
2018-Apr-19 09:00N 48°28' W 124°41'612.6
2018-Apr-19 08:30N 48°29' W 124°50'612.6
2018-Apr-19 08:00N 48°29' W 124°60'713.3
2018-Apr-19 07:30N 48°23' W 125°05'613.0
2018-Apr-19 07:00N 48°17' W 125°09'713.4
2018-Apr-19 06:29N 48°12' W 125°15'814.0
2018-Apr-19 05:57N 48°05' W 125°22'5812.4
2018-Apr-19 01:18N 47°10' W 125°45'413.4
2018-Apr-19 00:59N 47°06' W 125°45'713.9
2018-Apr-19 00:31N 46°59' W 125°44'713.9
2018-Apr-19 00:00N 46°52' W 125°44'714.0
2018-Apr-18 23:30N 46°45' W 125°44'714.1
2018-Apr-18 23:00N 46°38' W 125°44'1114.0
2018-Apr-18 22:13N 46°27' W 125°45'613.8
2018-Apr-18 21:46N 46°21' W 125°45'413.8
2018-Apr-18 21:31N 46°17' W 125°45'714.0
2018-Apr-18 21:00N 46°10' W 125°45'714.1
2018-Apr-18 20:30N 46°03' W 125°45'714.2
2018-Apr-18 20:01N 45°56' W 125°45'714.2
2018-Apr-18 19:30N 45°49' W 125°45'714.1
2018-Apr-18 19:00N 45°42' W 125°45'714.0
2018-Apr-18 18:30N 45°35' W 125°45'1314.1
2018-Apr-18 17:35N 45°22' W 125°45'114.2
2018-Apr-18 17:30N 45°21' W 125°45'814.3
2018-Apr-18 16:56N 45°12' W 125°45'1023.4
2018-Apr-18 16:30N 45°02' W 125°45'44412.5
2018-Apr-17 04:56N 37°45' W 124°01'611.6
2018-Apr-17 04:26N 37°43' W 123°53'1710.4
2018-Apr-17 02:48N 37°38' W 123°33'15 8.9
2018-Apr-17 01:04N 37°33' W 123°15'1 8.6
2018-Apr-17 00:57N 37°33' W 123°13'6 8.6
2018-Apr-17 00:18N 37°34' W 123°07'3 8.8
2018-Apr-17 00:00N 37°34' W 123°03'5 9.8
2018-Apr-16 23:30N 37°37' W 122°58'510.0
2018-Apr-16 23:00N 37°40' W 122°53'5 9.6
2018-Apr-16 22:30N 37°42' W 122°48'5 9.3
2018-Apr-16 22:00N 37°45' W 122°43'4 7.0
2018-Apr-16 21:30N 37°46' W 122°39'611.7
2018-Apr-16 21:00N 37°48' W 122°32'611.8
2018-Apr-16 20:30N 37°51' W 122°25'5 9.3
2018-Apr-16 20:00N 37°55' W 122°25'3 5.4
2018-Apr-16 19:30N 37°55' W 122°22'0 0.2
2018-Apr-16 18:58N 37°55' W 122°22'0 0.0
2018-Apr-16 18:28N 37°55' W 122°22'0 0.0
2018-Apr-16 17:58N 37°55' W 122°22'0 0.0
2018-Apr-16 17:28N 37°55' W 122°22'0 0.0
2018-Apr-16 16:58N 37°55' W 122°22'0 0.0
2018-Apr-16 16:28N 37°55' W 122°22'0 0.0
2018-Apr-16 15:52N 37°55' W 122°22'0 0.0
2018-Apr-16 15:28N 37°55' W 122°22'0 0.0
2018-Apr-16 14:52N 37°55' W 122°22'0 0.0
2018-Apr-16 14:25N 37°55' W 122°22'0 0.0
2018-Apr-16 13:58N 37°55' W 122°22'0 0.0
2018-Apr-16 13:25N 37°55' W 122°22'0 0.0
2018-Apr-16 12:58N 37°55' W 122°22'0 0.0
2018-Apr-16 12:28N 37°55' W 122°22'0 0.0
2018-Apr-16 11:58N 37°55' W 122°22'0 0.0
2018-Apr-16 11:28N 37°55' W 122°22'0 0.0
2018-Apr-16 10:55N 37°55' W 122°22'0 0.0
2018-Apr-16 10:25N 37°55' W 122°22'0 0.0
2018-Apr-16 09:58N 37°55' W 122°22'0 0.0
2018-Apr-16 09:28N 37°55' W 122°22'0 0.0
2018-Apr-16 08:58N 37°55' W 122°22'0 0.0
2018-Apr-16 08:28N 37°55' W 122°22'0 0.0
2018-Apr-16 07:58N 37°55' W 122°22'0 0.0
2018-Apr-16 07:28N 37°55' W 122°22'0 0.0
2018-Apr-16 06:58N 37°55' W 122°22'0 0.0
2018-Apr-16 06:28N 37°55' W 122°22'0 0.0
2018-Apr-16 05:58N 37°55' W 122°22'0 0.0
2018-Apr-16 05:28N 37°55' W 122°22'0 0.0
2018-Apr-16 04:58N 37°55' W 122°22'0 0.0
2018-Apr-16 04:28N 37°55' W 122°22'0 0.0
2018-Apr-16 03:58N 37°55' W 122°22'0 0.0
2018-Apr-16 03:28N 37°55' W 122°22'0 0.0
2018-Apr-16 02:58N 37°55' W 122°22'0 0.0
2018-Apr-16 02:28N 37°55' W 122°22'0 0.0
2018-Apr-16 01:58N 37°55' W 122°22'0 0.0
2018-Apr-16 01:28N 37°55' W 122°22'0 0.0
2018-Apr-16 00:58N 37°55' W 122°22'0 0.0
2018-Apr-16 00:28N 37°55' W 122°22'0 0.0
2018-Apr-15 23:58N 37°55' W 122°22'0 0.1
2018-Apr-15 23:28N 37°55' W 122°22'1 1.2
2018-Apr-15 23:00N 37°54' W 122°22'4 7.2
2018-Apr-15 22:30N 37°56' W 122°26'5 9.1
2018-Apr-15 22:00N 38°01' W 122°24'4 8.9
2018-Apr-15 21:30N 38°03' W 122°20'4 7.1
2018-Apr-15 21:00N 38°04' W 122°15'3 5.2
2018-Apr-15 20:30N 38°03' W 122°12'3 4.9
2018-Apr-15 19:58N 38°02' W 122°09'3 0.2
2018-Apr-15 03:26N 38°03' W 122°06'0 0.0
2018-Apr-13 06:16N 38°03' W 122°06'0 0.9
2018-Apr-13 05:57N 38°03' W 122°06'1 2.7
2018-Apr-13 05:27N 38°02' W 122°07'4 6.5
2018-Apr-13 04:52N 38°03' W 122°12'3 8.9
2018-Apr-13 04:30N 38°04' W 122°16'4 8.8
2018-Apr-13 04:00N 38°02' W 122°21'5 9.9
2018-Apr-13 03:30N 37°59' W 122°26'5 9.4
2018-Apr-13 03:00N 37°54' W 122°27'5 9.2
2018-Apr-13 02:30N 37°50' W 122°24'4 8.7
2018-Apr-13 02:00N 37°49' W 122°30'610.9
2018-Apr-13 01:30N 37°46' W 122°36'510.3
2018-Apr-13 01:00N 37°44' W 122°42'3 5.9
2018-Apr-13 00:30N 37°42' W 122°44'3 7.0
2018-Apr-13 00:00N 37°40' W 122°48'3 6.5
2018-Apr-12 23:30N 37°38' W 122°51'4 7.7
2018-Apr-12 23:00N 37°36' W 122°55'5 9.9
2018-Apr-12 22:30N 37°33' W 123°01'510.1
2018-Apr-12 22:00N 37°30' W 123°06'611.1
2018-Apr-12 21:30N 37°27' W 123°11'611.7
2018-Apr-12 20:58N 37°23' W 123°17'18210.2
2018-Apr-12 03:12N 34°29' W 122°10'1312.7
2018-Apr-12 02:10N 34°21' W 121°58'313.0
2018-Apr-12 01:56N 34°19' W 121°55'612.7
2018-Apr-12 01:26N 34°15' W 121°49'512.6
2018-Apr-12 01:00N 34°12' W 121°43'812.4
2018-Apr-12 00:24N 34°08' W 121°36'512.1
2018-Apr-12 00:00N 34°05' W 121°31'612.1
2018-Apr-11 23:30N 34°01' W 121°25'612.1
2018-Apr-11 23:00N 33°58' W 121°20'612.3
2018-Apr-11 22:30N 33°54' W 121°14'612.4
2018-Apr-11 22:00N 33°50' W 121°08'612.2
2018-Apr-11 21:30N 33°47' W 121°02'712.2
2018-Apr-11 20:57N 33°42' W 120°56'612.3
2018-Apr-11 20:26N 33°39' W 120°49'613.0
2018-Apr-11 19:59N 33°38' W 120°42'612.3
2018-Apr-11 19:30N 33°38' W 120°35'611.5
2018-Apr-11 19:00N 33°38' W 120°28'611.3
2018-Apr-11 18:30N 33°38' W 120°21'510.1
2018-Apr-11 18:00N 33°38' W 120°15'5 9.7
2018-Apr-11 17:29N 33°38' W 120°09'5 9.7
2018-Apr-11 16:59N 33°38' W 120°04'5 9.8
2018-Apr-11 16:30N 33°38' W 119°58'5 9.9
2018-Apr-11 15:59N 33°38' W 119°52'510.0
2018-Apr-11 15:29N 33°38' W 119°46'4 9.3
2018-Apr-11 15:00N 33°38' W 119°40'5 9.4
2018-Apr-11 14:29N 33°38' W 119°34'5 9.6
2018-Apr-11 13:56N 33°38' W 119°28'4 9.6
2018-Apr-11 13:30N 33°38' W 119°23'5 9.4
2018-Apr-11 12:59N 33°38' W 119°17'5 9.7
2018-Apr-11 12:28N 33°38' W 119°11'4 9.6
2018-Apr-11 12:00N 33°38' W 119°06'5 9.6
2018-Apr-11 11:30N 33°38' W 119°00'5 9.5
2018-Apr-11 11:00N 33°38' W 118°54'5 9.8
2018-Apr-11 10:30N 33°38' W 118°49'5 9.8
2018-Apr-11 10:00N 33°38' W 118°43'510.0
2018-Apr-11 09:30N 33°38' W 118°37'510.0
2018-Apr-11 09:00N 33°38' W 118°31'5 9.8
2018-Apr-11 08:30N 33°38' W 118°25'5 9.7
2018-Apr-11 08:00N 33°38' W 118°19'4 8.8
2018-Apr-11 07:30N 33°41' W 118°15'3 6.6
2018-Apr-11 07:00N 33°44' W 118°17'1 2.7
2018-Apr-11 06:28N 33°45' W 118°17'0 0.0
2018-Apr-11 05:58N 33°45' W 118°17'0 0.0
2018-Apr-11 05:28N 33°45' W 118°17'0 0.0
2018-Apr-11 04:58N 33°45' W 118°17'0 0.0
2018-Apr-11 04:28N 33°45' W 118°17'0 0.0
2018-Apr-11 03:58N 33°45' W 118°17'0 0.0
2018-Apr-11 03:28N 33°45' W 118°17'0 0.0
2018-Apr-11 02:58N 33°45' W 118°17'0 0.0
2018-Apr-11 02:28N 33°45' W 118°17'0 0.0
2018-Apr-11 01:58N 33°45' W 118°17'0 0.0
2018-Apr-11 01:28N 33°45' W 118°17'0 0.0
2018-Apr-11 00:58N 33°45' W 118°17'0 0.0
2018-Apr-11 00:28N 33°45' W 118°17'0 0.0
2018-Apr-10 23:58N 33°45' W 118°17'0 0.0
2018-Apr-10 23:28N 33°45' W 118°17'0 0.0
2018-Apr-10 22:58N 33°45' W 118°17'0 0.0
2018-Apr-10 22:28N 33°45' W 118°17'0 0.0
2018-Apr-10 21:58N 33°45' W 118°17'0 0.0
2018-Apr-10 21:28N 33°45' W 118°17'0 0.0
2018-Apr-10 20:58N 33°45' W 118°17'0 0.0
2018-Apr-10 20:28N 33°45' W 118°17'0 0.0
2018-Apr-10 19:58N 33°45' W 118°17'0 0.0
2018-Apr-10 19:28N 33°45' W 118°17'0 0.0
2018-Apr-10 18:58N 33°45' W 118°17'0 0.0
2018-Apr-10 18:28N 33°45' W 118°17'0 0.0
2018-Apr-10 17:58N 33°45' W 118°17'0 0.0
2018-Apr-10 17:28N 33°45' W 118°17'0 0.0
2018-Apr-10 16:58N 33°45' W 118°17'0 0.0
2018-Apr-10 16:28N 33°45' W 118°17'0 0.0
2018-Apr-10 15:58N 33°45' W 118°17'0 0.0
2018-Apr-10 15:28N 33°45' W 118°17'0 0.0
2018-Apr-10 14:58N 33°45' W 118°17'0 0.0
2018-Apr-10 14:28N 33°45' W 118°17'0 0.0
2018-Apr-10 13:58N 33°45' W 118°17'0 0.0
2018-Apr-10 13:28N 33°45' W 118°17'0 0.0
2018-Apr-10 12:58N 33°45' W 118°17'0 0.0
2018-Apr-10 12:28N 33°45' W 118°17'0 0.0
2018-Apr-10 11:58N 33°45' W 118°17'0 0.0
2018-Apr-10 11:28N 33°45' W 118°17'0 0.0
2018-Apr-10 10:58N 33°45' W 118°17'0 0.0
2018-Apr-10 10:28N 33°45' W 118°17'0 0.0
2018-Apr-10 09:58N 33°45' W 118°17'0 0.0
2018-Apr-10 09:28N 33°45' W 118°17'0 0.0
2018-Apr-10 08:58N 33°45' W 118°17'0 0.0
2018-Apr-10 08:28N 33°45' W 118°17'0 0.0
2018-Apr-10 07:58N 33°45' W 118°17'0 0.0
2018-Apr-10 07:28N 33°45' W 118°17'0 0.0
2018-Apr-10 06:55N 33°45' W 118°17'0 0.0
2018-Apr-10 06:28N 33°45' W 118°17'0 0.0
2018-Apr-10 05:58N 33°45' W 118°17'0 0.0
2018-Apr-10 05:28N 33°45' W 118°17'0 0.0
2018-Apr-10 04:58N 33°45' W 118°17'0 0.0
2018-Apr-10 04:28N 33°45' W 118°17'0 0.0
2018-Apr-10 03:58N 33°45' W 118°17'0 0.0
2018-Apr-10 03:28N 33°45' W 118°17'0 0.0
2018-Apr-10 02:58N 33°45' W 118°17'0 0.0
2018-Apr-10 02:28N 33°45' W 118°17'0 0.0
2018-Apr-10 01:58N 33°45' W 118°17'0 0.0
2018-Apr-10 01:28N 33°45' W 118°17'0 0.0
2018-Apr-10 00:58N 33°45' W 118°17'0 0.0
2018-Apr-10 00:28N 33°45' W 118°17'0 0.0
2018-Apr-09 23:58N 33°45' W 118°17'0 0.0
2018-Apr-09 23:29N 33°45' W 118°17'0 0.0
2018-Apr-09 22:58N 33°45' W 118°17'0 0.0
2018-Apr-09 22:28N 33°45' W 118°17'0 0.0
2018-Apr-09 21:58N 33°45' W 118°17'0 0.0
2018-Apr-09 21:28N 33°45' W 118°17'0 0.0
2018-Apr-09 20:58N 33°45' W 118°17'0 0.0
2018-Apr-09 20:28N 33°45' W 118°17'0 0.0
2018-Apr-09 19:58N 33°45' W 118°17'0 0.0
2018-Apr-09 19:25N 33°45' W 118°17'0 0.0
2018-Apr-09 18:58N 33°45' W 118°17'0 0.0
2018-Apr-09 18:28N 33°45' W 118°17'0 0.0
2018-Apr-09 17:58N 33°45' W 118°17'0 0.0
2018-Apr-09 17:28N 33°45' W 118°17'0 0.0
2018-Apr-09 16:58N 33°45' W 118°17'0 0.0
2018-Apr-09 16:28N 33°45' W 118°17'0 0.0
2018-Apr-09 15:58N 33°45' W 118°17'0 0.0
2018-Apr-09 15:28N 33°45' W 118°17'0 0.0
2018-Apr-09 14:58N 33°45' W 118°17'0 0.0
2018-Apr-09 14:28N 33°45' W 118°17'0 0.0
2018-Apr-09 13:58N 33°45' W 118°17'  
Track history (hours):
 
Tides and Currents Weather Stations Pressure Air Temp Water Temp Dewpoint Dewpoint Depression Visibility Wind Speed Wind Dir Waves Ship Positions

Pelican State

Owner: Crowley Petroleum Serives, Jacksonville, FL. More information available from US FCC via Universal Licensing System and Coast Guard Vessel Documentation Center.

Last reported at 2018-Apr-19 13:52 UTC. Time now 2018-Apr-19 23:21 UTC.
Position N 48°08' W 123°23'.

Length 183 m; draft 8.7 m.

Type: Tanker. MMSI: 367353110.

Date/timePositionNaut miles runAvg speedWind from/ knotsBaromVisibWave heightAir tempDewpointWater temp
2018-Apr-19 13:52N 48°08' W 123°23'2 6.1
2018-Apr-19 13:29N 48°10' W 123°24'4 8.6
2018-Apr-19 13:00N 48°13' W 123°30'5 9.5
2018-Apr-19 12:30N 48°14' W 123°37'611.8
2018-Apr-19 12:00N 48°14' W 123°46'612.7
2018-Apr-19 11:30N 48°14' W 123°55'713.6
2018-Apr-19 11:00N 48°17' W 124°05'713.4
2018-Apr-19 10:30N 48°19' W 124°14'713.5
2018-Apr-19 10:00N 48°22' W 124°23'713.5
2018-Apr-19 09:31N 48°25' W 124°32'713.1
2018-Apr-19 09:00N 48°28' W 124°41'612.6
2018-Apr-19 08:30N 48°29' W 124°50'612.6
2018-Apr-19 08:00N 48°29' W 124°60'713.3
2018-Apr-19 07:30N 48°23' W 125°05'613.0
2018-Apr-19 07:00N 48°17' W 125°09'713.4
2018-Apr-19 06:29N 48°12' W 125°15'814.0
2018-Apr-19 05:57N 48°05' W 125°22'5812.4
2018-Apr-19 01:18N 47°10' W 125°45'413.4
2018-Apr-19 00:59N 47°06' W 125°45'713.9
2018-Apr-19 00:31N 46°59' W 125°44'713.9
2018-Apr-19 00:00N 46°52' W 125°44'714.0
2018-Apr-18 23:30N 46°45' W 125°44'714.1
2018-Apr-18 23:00N 46°38' W 125°44'1114.0
2018-Apr-18 22:13N 46°27' W 125°45'613.8
2018-Apr-18 21:46N 46°21' W 125°45'413.8
2018-Apr-18 21:31N 46°17' W 125°45'714.0
2018-Apr-18 21:00N 46°10' W 125°45'714.1
2018-Apr-18 20:30N 46°03' W 125°45'714.2
2018-Apr-18 20:01N 45°56' W 125°45'714.2
2018-Apr-18 19:30N 45°49' W 125°45'714.1
2018-Apr-18 19:00N 45°42' W 125°45'714.0
2018-Apr-18 18:30N 45°35' W 125°45'1314.1
2018-Apr-18 17:35N 45°22' W 125°45'114.2
2018-Apr-18 17:30N 45°21' W 125°45'814.3
2018-Apr-18 16:56N 45°12' W 125°45'1023.4
2018-Apr-18 16:30N 45°02' W 125°45'44412.5
2018-Apr-17 04:56N 37°45' W 124°01'611.6
2018-Apr-17 04:26N 37°43' W 123°53'1710.4
2018-Apr-17 02:48N 37°38' W 123°33'15 8.9
2018-Apr-17 01:04N 37°33' W 123°15'1 8.6
2018-Apr-17 00:57N 37°33' W 123°13'6 8.6
2018-Apr-17 00:18N 37°34' W 123°07'3 8.8
2018-Apr-17 00:00N 37°34' W 123°03'5 9.8
2018-Apr-16 23:30N 37°37' W 122°58'510.0
2018-Apr-16 23:00N 37°40' W 122°53'5 9.6
2018-Apr-16 22:30N 37°42' W 122°48'5 9.3
2018-Apr-16 22:00N 37°45' W 122°43'4 7.0
2018-Apr-16 21:30N 37°46' W 122°39'611.7
2018-Apr-16 21:00N 37°48' W 122°32'611.8
2018-Apr-16 20:30N 37°51' W 122°25'5 9.3
2018-Apr-16 20:00N 37°55' W 122°25'3 5.4
2018-Apr-16 19:30N 37°55' W 122°22'0 0.2
2018-Apr-16 18:58N 37°55' W 122°22'0 0.0
2018-Apr-16 18:28N 37°55' W 122°22'0 0.0
2018-Apr-16 17:58N 37°55' W 122°22'0 0.0
2018-Apr-16 17:28N 37°55' W 122°22'0 0.0
2018-Apr-16 16:58N 37°55' W 122°22'0 0.0
2018-Apr-16 16:28N 37°55' W 122°22'0 0.0
2018-Apr-16 15:52N 37°55' W 122°22'0 0.0
2018-Apr-16 15:28N 37°55' W 122°22'0 0.0
2018-Apr-16 14:52N 37°55' W 122°22'0 0.0
2018-Apr-16 14:25N 37°55' W 122°22'0 0.0
2018-Apr-16 13:58N 37°55' W 122°22'0 0.0
2018-Apr-16 13:25N 37°55' W 122°22'0 0.0
2018-Apr-16 12:58N 37°55' W 122°22'0 0.0
2018-Apr-16 12:28N 37°55' W 122°22'0 0.0
2018-Apr-16 11:58N 37°55' W 122°22'0 0.0
2018-Apr-16 11:28N 37°55' W 122°22'0 0.0
2018-Apr-16 10:55N 37°55' W 122°22'0 0.0
2018-Apr-16 10:25N 37°55' W 122°22'0 0.0
2018-Apr-16 09:58N 37°55' W 122°22'0 0.0
2018-Apr-16 09:28N 37°55' W 122°22'0 0.0
2018-Apr-16 08:58N 37°55' W 122°22'0 0.0
2018-Apr-16 08:28N 37°55' W 122°22'0 0.0
2018-Apr-16 07:58N 37°55' W 122°22'0 0.0
2018-Apr-16 07:28N 37°55' W 122°22'0 0.0
2018-Apr-16 06:58N 37°55' W 122°22'0 0.0
2018-Apr-16 06:28N 37°55' W 122°22'0 0.0
2018-Apr-16 05:58N 37°55' W 122°22'0 0.0
2018-Apr-16 05:28N 37°55' W 122°22'0 0.0
2018-Apr-16 04:58N 37°55' W 122°22'0 0.0
2018-Apr-16 04:28N 37°55' W 122°22'0 0.0
2018-Apr-16 03:58N 37°55' W 122°22'0 0.0
2018-Apr-16 03:28N 37°55' W 122°22'0 0.0
2018-Apr-16 02:58N 37°55' W 122°22'0 0.0
2018-Apr-16 02:28N 37°55' W 122°22'0 0.0
2018-Apr-16 01:58N 37°55' W 122°22'0 0.0
2018-Apr-16 01:28N 37°55' W 122°22'0 0.0
2018-Apr-16 00:58N 37°55' W 122°22'0 0.0
2018-Apr-16 00:28N 37°55' W 122°22'0 0.0
2018-Apr-15 23:58N 37°55' W 122°22'0 0.1
2018-Apr-15 23:28N 37°55' W 122°22'1 1.2
2018-Apr-15 23:00N 37°54' W 122°22'4 7.2
2018-Apr-15 22:30N 37°56' W 122°26'5 9.1
2018-Apr-15 22:00N 38°01' W 122°24'4 8.9
2018-Apr-15 21:30N 38°03' W 122°20'4 7.1
2018-Apr-15 21:00N 38°04' W 122°15'3 5.2
2018-Apr-15 20:30N 38°03' W 122°12'3 4.9
2018-Apr-15 19:58N 38°02' W 122°09'3 0.2
2018-Apr-15 03:26N 38°03' W 122°06'0 0.0
2018-Apr-13 06:16N 38°03' W 122°06'0 0.9
2018-Apr-13 05:57N 38°03' W 122°06'1 2.7
2018-Apr-13 05:27N 38°02' W 122°07'4 6.5
2018-Apr-13 04:52N 38°03' W 122°12'3 8.9
2018-Apr-13 04:30N 38°04' W 122°16'4 8.8
2018-Apr-13 04:00N 38°02' W 122°21'5 9.9
2018-Apr-13 03:30N 37°59' W 122°26'5 9.4
2018-Apr-13 03:00N 37°54' W 122°27'5 9.2
2018-Apr-13 02:30N 37°50' W 122°24'4 8.7
2018-Apr-13 02:00N 37°49' W 122°30'610.9
2018-Apr-13 01:30N 37°46' W 122°36'510.3
2018-Apr-13 01:00N 37°44' W 122°42'3 5.9
2018-Apr-13 00:30N 37°42' W 122°44'3 7.0
2018-Apr-13 00:00N 37°40' W 122°48'3 6.5
2018-Apr-12 23:30N 37°38' W 122°51'4 7.7
2018-Apr-12 23:00N 37°36' W 122°55'5 9.9
2018-Apr-12 22:30N 37°33' W 123°01'510.1
2018-Apr-12 22:00N 37°30' W 123°06'611.1
2018-Apr-12 21:30N 37°27' W 123°11'611.7
2018-Apr-12 20:58N 37°23' W 123°17'18210.2
2018-Apr-12 03:12N 34°29' W 122°10'1312.7
2018-Apr-12 02:10N 34°21' W 121°58'313.0
2018-Apr-12 01:56N 34°19' W 121°55'612.7
2018-Apr-12 01:26N 34°15' W 121°49'512.6
2018-Apr-12 01:00N 34°12' W 121°43'812.4
2018-Apr-12 00:24N 34°08' W 121°36'512.1
2018-Apr-12 00:00N 34°05' W 121°31'612.1
2018-Apr-11 23:30N 34°01' W 121°25'612.1
2018-Apr-11 23:00N 33°58' W 121°20'612.3
2018-Apr-11 22:30N 33°54' W 121°14'612.4
2018-Apr-11 22:00N 33°50' W 121°08'612.2
2018-Apr-11 21:30N 33°47' W 121°02'712.2
2018-Apr-11 20:57N 33°42' W 120°56'612.3
2018-Apr-11 20:26N 33°39' W 120°49'613.0
2018-Apr-11 19:59N 33°38' W 120°42'612.3
2018-Apr-11 19:30N 33°38' W 120°35'611.5
2018-Apr-11 19:00N 33°38' W 120°28'611.3
2018-Apr-11 18:30N 33°38' W 120°21'510.1
2018-Apr-11 18:00N 33°38' W 120°15'5 9.7
2018-Apr-11 17:29N 33°38' W 120°09'5 9.7
2018-Apr-11 16:59N 33°38' W 120°04'5 9.8
2018-Apr-11 16:30N 33°38' W 119°58'5 9.9
2018-Apr-11 15:59N 33°38' W 119°52'510.0
2018-Apr-11 15:29N 33°38' W 119°46'4 9.3
2018-Apr-11 15:00N 33°38' W 119°40'5 9.4
2018-Apr-11 14:29N 33°38' W 119°34'5 9.6
2018-Apr-11 13:56N 33°38' W 119°28'4 9.6
2018-Apr-11 13:30N 33°38' W 119°23'5 9.4
2018-Apr-11 12:59N 33°38' W 119°17'5 9.7
2018-Apr-11 12:28N 33°38' W 119°11'4 9.6
2018-Apr-11 12:00N 33°38' W 119°06'5 9.6
2018-Apr-11 11:30N 33°38' W 119°00'5 9.5
2018-Apr-11 11:00N 33°38' W 118°54'5 9.8
2018-Apr-11 10:30N 33°38' W 118°49'5 9.8
2018-Apr-11 10:00N 33°38' W 118°43'510.0
2018-Apr-11 09:30N 33°38' W 118°37'510.0
2018-Apr-11 09:00N 33°38' W 118°31'5 9.8
2018-Apr-11 08:30N 33°38' W 118°25'5 9.7
2018-Apr-11 08:00N 33°38' W 118°19'4 8.8
2018-Apr-11 07:30N 33°41' W 118°15'3 6.6
2018-Apr-11 07:00N 33°44' W 118°17'1 2.7
2018-Apr-11 06:28N 33°45' W 118°17'0 0.0
2018-Apr-11 05:58N 33°45' W 118°17'0 0.0
2018-Apr-11 05:28N 33°45' W 118°17'0 0.0
2018-Apr-11 04:58N 33°45' W 118°17'0 0.0
2018-Apr-11 04:28N 33°45' W 118°17'0 0.0
2018-Apr-11 03:58N 33°45' W 118°17'0 0.0
2018-Apr-11 03:28N 33°45' W 118°17'0 0.0
2018-Apr-11 02:58N 33°45' W 118°17'0 0.0
2018-Apr-11 02:28N 33°45' W 118°17'0 0.0
2018-Apr-11 01:58N 33°45' W 118°17'0 0.0
2018-Apr-11 01:28N 33°45' W 118°17'0 0.0
2018-Apr-11 00:58N 33°45' W 118°17'0 0.0
2018-Apr-11 00:28N 33°45' W 118°17'0 0.0
2018-Apr-10 23:58N 33°45' W 118°17'0 0.0
2018-Apr-10 23:28N 33°45' W 118°17'0 0.0
2018-Apr-10 22:58N 33°45' W 118°17'0 0.0
2018-Apr-10 22:28N 33°45' W 118°17'0 0.0
2018-Apr-10 21:58N 33°45' W 118°17'0 0.0
2018-Apr-10 21:28N 33°45' W 118°17'0 0.0
2018-Apr-10 20:58N 33°45' W 118°17'0 0.0
2018-Apr-10 20:28N 33°45' W 118°17'0 0.0
2018-Apr-10 19:58N 33°45' W 118°17'0 0.0
2018-Apr-10 19:28N 33°45' W 118°17'0 0.0
2018-Apr-10 18:58N 33°45' W 118°17'0 0.0
2018-Apr-10 18:28N 33°45' W 118°17'0 0.0
2018-Apr-10 17:58N 33°45' W 118°17'0 0.0
2018-Apr-10 17:28N 33°45' W 118°17'0 0.0
2018-Apr-10 16:58N 33°45' W 118°17'0 0.0
2018-Apr-10 16:28N 33°45' W 118°17'0 0.0
2018-Apr-10 15:58N 33°45' W 118°17'0 0.0
2018-Apr-10 15:28N 33°45' W 118°17'0 0.0
2018-Apr-10 14:58N 33°45' W 118°17'0 0.0
2018-Apr-10 14:28N 33°45' W 118°17'0 0.0
2018-Apr-10 13:58N 33°45' W 118°17'0 0.0
2018-Apr-10 13:28N 33°45' W 118°17'0 0.0
2018-Apr-10 12:58N 33°45' W 118°17'0 0.0
2018-Apr-10 12:28N 33°45' W 118°17'0 0.0
2018-Apr-10 11:58N 33°45' W 118°17'0 0.0
2018-Apr-10 11:28N 33°45' W 118°17'0 0.0
2018-Apr-10 10:58N 33°45' W 118°17'0 0.0
2018-Apr-10 10:28N 33°45' W 118°17'0 0.0
2018-Apr-10 09:58N 33°45' W 118°17'0 0.0
2018-Apr-10 09:28N 33°45' W 118°17'0 0.0
2018-Apr-10 08:58N 33°45' W 118°17'0 0.0
2018-Apr-10 08:28N 33°45' W 118°17'0 0.0
2018-Apr-10 07:58N 33°45' W 118°17'0 0.0
2018-Apr-10 07:28N 33°45' W 118°17'0 0.0
2018-Apr-10 06:55N 33°45' W 118°17'0 0.0
2018-Apr-10 06:28N 33°45' W 118°17'0 0.0
2018-Apr-10 05:58N 33°45' W 118°17'0 0.0
2018-Apr-10 05:28N 33°45' W 118°17'0 0.0
2018-Apr-10 04:58N 33°45' W 118°17'0 0.0
2018-Apr-10 04:28N 33°45' W 118°17'0 0.0
2018-Apr-10 03:58N 33°45' W 118°17'0 0.0
2018-Apr-10 03:28N 33°45' W 118°17'0 0.0
2018-Apr-10 02:58N 33°45' W 118°17'0 0.0
2018-Apr-10 02:28N 33°45' W 118°17'0 0.0
2018-Apr-10 01:58N 33°45' W 118°17'0 0.0
2018-Apr-10 01:28N 33°45' W 118°17'0 0.0
2018-Apr-10 00:58N 33°45' W 118°17'0 0.0
2018-Apr-10 00:28N 33°45' W 118°17'0 0.0
2018-Apr-09 23:58N 33°45' W 118°17'0 0.0
2018-Apr-09 23:29N 33°45' W 118°17'0 0.0
2018-Apr-09 22:58N 33°45' W 118°17'0 0.0
2018-Apr-09 22:28N 33°45' W 118°17'0 0.0
2018-Apr-09 21:58N 33°45' W 118°17'0 0.0
2018-Apr-09 21:28N 33°45' W 118°17'0 0.0
2018-Apr-09 20:58N 33°45' W 118°17'0 0.0
2018-Apr-09 20:28N 33°45' W 118°17'0 0.0
2018-Apr-09 19:58N 33°45' W 118°17'0 0.0
2018-Apr-09 19:25N 33°45' W 118°17'0 0.0
2018-Apr-09 18:58N 33°45' W 118°17'0 0.0
2018-Apr-09 18:28N 33°45' W 118°17'0 0.0
2018-Apr-09 17:58N 33°45' W 118°17'0 0.0
2018-Apr-09 17:28N 33°45' W 118°17'0 0.0
2018-Apr-09 16:58N 33°45' W 118°17'0 0.0
2018-Apr-09 16:28N 33°45' W 118°17'0 0.0
2018-Apr-09 15:58N 33°45' W 118°17'0 0.0
2018-Apr-09 15:28N 33°45' W 118°17'0 0.0
2018-Apr-09 14:58N 33°45' W 118°17'0 0.0
2018-Apr-09 14:28N 33°45' W 118°17'0 0.0
2018-Apr-09 13:58N 33°45' W 118°17'  

Dump ship's entire track history